Terminal Aerodrome Forecast
Issued by NWS

Home | Current Version | Previous Version | Text Only | Print | Product List | Glossary On
Versions: 1 2 3 4 5 6 7 8 9 10 11 12 13 14 15 16 17
000
FTUS41 KPBZ 281134
TAFAGC
TAF
KAGC 281134Z 2812/2912 VRB03KT P6SM BKN250
     FM281500 20005KT P6SM SCT035
     FM282000 23005KT P6SM VCTS BKN040CB
     FM290000 32003KT P6SM BKN150=

USA.gov is the U.S. government's official web portal to all federal, state and local government web resources and services.